Terminal Aerodrome Forecast
Issued by NWS Memphis, TN

Home | Current Version | Previous Version | Text Only | Print | Product List | Glossary On
Versions: 1 2 3 4 5 6 7 8 9 10 11 12 13 14 15 16 17 18 19 20 21 22 23 24 25 26 27 28 29
770
FTUS44 KMEG 170259 AAA
TAFMEM
TAF AMD
KMEM 170259Z 1703/1724 17015G23KT P6SM VCTS OVC050CB
     FM171200 26005KT 5SM -SHRA BR OVC005
     FM171800 26006KT P6SM OVC050
     FM172200 27006KT P6SM OVC100=

USA.gov is the U.S. government's official web portal to all federal, state and local government web resources and services.